Terminal Aerodrome Forecast
Issued by NWS

Current Version | Previous Version | Text Only | Print | Product List | Glossary On
Versions: 1 2 3 4 5 6 7 8 9 10 11 12 13 14 15
000
FTUS45 KBOI 051141
TAFBKE
TAF
KBKE 051141Z 0512/0612 30009KT P6SM BKN100 OVC200
     FM052100 30015G25KT P6SM VCTS BKN080CB OVC150
     FM060200 30014G20KT P6SM VCSH BKN080 OVC150
     FM060400 31012KT P6SM BKN080 OVC200=

USA.gov is the U.S. government's official web portal to all federal, state and local government web resources and services.